sensor_id;sensor_type;location;lat;lon;timestamp;P1;durP1;ratioP1;P2;durP2;ratioP2
16099;SDS011;8154;50.830;12.082;2022-08-01T00:01:50;3.55;;;3.20;;
16099;SDS011;8154;50.830;12.082;2022-08-01T00:04:35;4.47;;;3.10;;
16099;SDS011;8154;50.830;12.082;2022-08-01T00:07:19;3.67;;;3.30;;
16099;SDS011;8154;50.830;12.082;2022-08-01T00:10:04;3.30;;;3.00;;
16099;SDS011;8154;50.830;12.082;2022-08-01T00:12:51;4.15;;;3.60;;
16099;SDS011;8154;50.830;12.082;2022-08-01T00:15:35;3.88;;;3.35;;
16099;SDS011;8154;50.830;12.082;2022-08-01T00:18:20;4.03;;;3.30;;
16099;SDS011;8154;50.830;12.082;2022-08-01T00:21:04;3.53;;;3.22;;
16099;SDS011;8154;50.830;12.082;2022-08-01T00:23:48;3.72;;;3.08;;
16099;SDS011;8154;50.830;12.082;2022-08-01T00:26:33;3.78;;;3.47;;
16099;SDS011;8154;50.830;12.082;2022-08-01T00:29:18;3.60;;;3.30;;
16099;SDS011;8154;50.830;12.082;2022-08-01T00:32:03;3.65;;;3.15;;
16099;SDS011;8154;50.830;12.082;2022-08-01T00:34:48;4.35;;;3.40;;
16099;SDS011;8154;50.830;12.082;2022-08-01T00:37:34;3.40;;;3.10;;
16099;SDS011;8154;50.830;12.082;2022-08-01T00:40:22;4.35;;;3.10;;
16099;SDS011;8154;50.830;12.082;2022-08-01T00:43:06;3.20;;;3.00;;
16099;SDS011;8154;50.830;12.082;2022-08-01T00:45:51;3.60;;;3.30;;
16099;SDS011;8154;50.830;12.082;2022-08-01T00:48:36;3.10;;;2.80;;
16099;SDS011;8154;50.830;12.082;2022-08-01T00:51:21;5.32;;;2.70;;
16099;SDS011;8154;50.830;12.082;2022-08-01T00:54:06;3.10;;;2.90;;
16099;SDS011;8154;50.830;12.082;2022-08-01T00:56:51;3.25;;;2.90;;
16099;SDS011;8154;50.830;12.082;2022-08-01T00:59:37;3.17;;;2.90;;
16099;SDS011;8154;50.830;12.082;2022-08-01T01:02:23;3.20;;;3.00;;
16099;SDS011;8154;50.830;12.082;2022-08-01T01:05:07;3.22;;;2.92;;
16099;SDS011;8154;50.830;12.082;2022-08-01T01:08:07;3.50;;;3.20;;
16099;SDS011;8154;50.830;12.082;2022-08-01T01:10:58;3.40;;;3.10;;
16099;SDS011;8154;50.830;12.082;2022-08-01T01:13:53;3.22;;;3.03;;
16099;SDS011;8154;50.830;12.082;2022-08-01T01:16:44;4.22;;;3.08;;
16099;SDS011;8154;50.830;12.082;2022-08-01T01:19:30;3.25;;;2.95;;
16099;SDS011;8154;50.830;12.082;2022-08-01T01:28:27;3.30;;;2.90;;
16099;SDS011;8154;50.830;12.082;2022-08-01T01:31:19;5.38;;;3.00;;
16099;SDS011;8154;50.830;12.082;2022-08-01T01:34:07;3.00;;;2.80;;
16099;SDS011;8154;50.830;12.082;2022-08-01T01:36:54;3.00;;;2.80;;
16099;SDS011;8154;50.830;12.082;2022-08-01T01:39:42;3.20;;;3.00;;
16099;SDS011;8154;50.830;12.082;2022-08-01T01:42:29;3.75;;;2.80;;
16099;SDS011;8154;50.830;12.082;2022-08-01T01:45:15;2.97;;;2.75;;
16099;SDS011;8154;50.830;12.082;2022-08-01T01:48:01;3.17;;;2.90;;
16099;SDS011;8154;50.830;12.082;2022-08-01T01:50:47;3.55;;;3.25;;
16099;SDS011;8154;50.830;12.082;2022-08-01T01:53:33;3.38;;;3.08;;
16099;SDS011;8154;50.830;12.082;2022-08-01T01:56:19;2.90;;;2.70;;
16099;SDS011;8154;50.830;12.082;2022-08-01T01:59:04;3.20;;;2.92;;
16099;SDS011;8154;50.830;12.082;2022-08-01T02:01:49;3.00;;;2.80;;
16099;SDS011;8154;50.830;12.082;2022-08-01T02:04:36;3.00;;;2.80;;
16099;SDS011;8154;50.830;12.082;2022-08-01T02:07:24;2.97;;;2.78;;
16099;SDS011;8154;50.830;12.082;2022-08-01T02:10:11;3.20;;;2.90;;
16099;SDS011;8154;50.830;12.082;2022-08-01T02:12:57;2.83;;;2.63;;
16099;SDS011;8154;50.830;12.082;2022-08-01T02:15:43;3.75;;;3.03;;
16099;SDS011;8154;50.830;12.082;2022-08-01T02:18:29;3.30;;;3.00;;
16099;SDS011;8154;50.830;12.082;2022-08-01T02:21:16;3.33;;;3.00;;
16099;SDS011;8154;50.830;12.082;2022-08-01T02:24:09;5.05;;;3.08;;
16099;SDS011;8154;50.830;12.082;2022-08-01T02:27:00;3.10;;;2.90;;
16099;SDS011;8154;50.830;12.082;2022-08-01T02:32:47;3.10;;;2.90;;
16099;SDS011;8154;50.830;12.082;2022-08-01T02:35:35;3.10;;;2.90;;
16099;SDS011;8154;50.830;12.082;2022-08-01T02:38:25;3.25;;;3.05;;
16099;SDS011;8154;50.830;12.082;2022-08-01T02:41:13;3.15;;;2.95;;
16099;SDS011;8154;50.830;12.082;2022-08-01T02:44:05;3.45;;;3.15;;
16099;SDS011;8154;50.830;12.082;2022-08-01T02:46:54;3.55;;;3.20;;
16099;SDS011;8154;50.830;12.082;2022-08-01T02:49:47;3.42;;;3.13;;
16099;SDS011;8154;50.830;12.082;2022-08-01T02:52:34;3.80;;;3.00;;
16099;SDS011;8154;50.830;12.082;2022-08-01T02:55:20;3.88;;;3.33;;
16099;SDS011;8154;50.830;12.082;2022-08-01T02:58:07;3.72;;;3.35;;
16099;SDS011;8154;50.830;12.082;2022-08-01T03:00:53;3.53;;;3.17;;
16099;SDS011;8154;50.830;12.082;2022-08-01T03:03:39;6.43;;;3.25;;
16099;SDS011;8154;50.830;12.082;2022-08-01T03:06:24;3.47;;;3.17;;
16099;SDS011;8154;50.830;12.082;2022-08-01T03:09:10;3.40;;;3.20;;
16099;SDS011;8154;50.830;12.082;2022-08-01T03:11:56;4.57;;;3.50;;
16099;SDS011;8154;50.830;12.082;2022-08-01T03:14:45;3.22;;;3.03;;
16099;SDS011;8154;50.830;12.082;2022-08-01T03:17:31;3.47;;;3.17;;
16099;SDS011;8154;50.830;12.082;2022-08-01T03:20:18;3.55;;;3.25;;
16099;SDS011;8154;50.830;12.082;2022-08-01T03:23:08;3.92;;;3.33;;
16099;SDS011;8154;50.830;12.082;2022-08-01T03:25:55;3.83;;;3.00;;
16099;SDS011;8154;50.830;12.082;2022-08-01T03:28:41;3.22;;;3.03;;
16099;SDS011;8154;50.830;12.082;2022-08-01T03:31:28;4.18;;;3.28;;
16099;SDS011;8154;50.830;12.082;2022-08-01T03:34:14;4.28;;;3.30;;
16099;SDS011;8154;50.830;12.082;2022-08-01T03:37:05;3.10;;;2.90;;
16099;SDS011;8154;50.830;12.082;2022-08-01T03:40:00;3.33;;;3.03;;
16099;SDS011;8154;50.830;12.082;2022-08-01T03:42:50;3.30;;;3.08;;
16099;SDS011;8154;50.830;12.082;2022-08-01T03:45:49;3.55;;;3.25;;
16099;SDS011;8154;50.830;12.082;2022-08-01T03:48:36;3.25;;;2.95;;
16099;SDS011;8154;50.830;12.082;2022-08-01T03:51:26;3.22;;;3.03;;
16099;SDS011;8154;50.830;12.082;2022-08-01T03:54:13;3.60;;;3.30;;
16099;SDS011;8154;50.830;12.082;2022-08-01T03:56:59;3.53;;;3.28;;
16099;SDS011;8154;50.830;12.082;2022-08-01T03:59:46;3.47;;;3.17;;
16099;SDS011;8154;50.830;12.082;2022-08-01T04:02:31;3.17;;;2.90;;
16099;SDS011;8154;50.830;12.082;2022-08-01T04:05:16;3.42;;;3.15;;
16099;SDS011;8154;50.830;12.082;2022-08-01T04:08:02;3.30;;;3.00;;
16099;SDS011;8154;50.830;12.082;2022-08-01T04:10:49;4.00;;;3.13;;
16099;SDS011;8154;50.830;12.082;2022-08-01T04:13:33;3.45;;;3.15;;
16099;SDS011;8154;50.830;12.082;2022-08-01T04:16:18;2.95;;;2.75;;
16099;SDS011;8154;50.830;12.082;2022-08-01T04:19:03;4.25;;;2.97;;
16099;SDS011;8154;50.830;12.082;2022-08-01T04:21:51;3.53;;;3.22;;
16099;SDS011;8154;50.830;12.082;2022-08-01T04:24:35;3.40;;;3.10;;
16099;SDS011;8154;50.830;12.082;2022-08-01T04:27:27;3.22;;;3.00;;
16099;SDS011;8154;50.830;12.082;2022-08-01T04:30:15;4.68;;;3.28;;
16099;SDS011;8154;50.830;12.082;2022-08-01T04:33:03;3.47;;;3.17;;
16099;SDS011;8154;50.830;12.082;2022-08-01T04:35:50;5.00;;;3.25;;
16099;SDS011;8154;50.830;12.082;2022-08-01T04:38:36;3.20;;;3.00;;
16099;SDS011;8154;50.830;12.082;2022-08-01T04:41:24;3.13;;;2.80;;
16099;SDS011;8154;50.830;12.082;2022-08-01T04:44:09;2.85;;;2.65;;
16099;SDS011;8154;50.830;12.082;2022-08-01T04:46:57;3.17;;;2.80;;
16099;SDS011;8154;50.830;12.082;2022-08-01T04:49:45;5.63;;;2.70;;
16099;SDS011;8154;50.830;12.082;2022-08-01T04:52:32;2.88;;;2.65;;
16099;SDS011;8154;50.830;12.082;2022-08-01T04:55:19;2.70;;;2.50;;
16099;SDS011;8154;50.830;12.082;2022-08-01T04:58:11;2.67;;;2.47;;
16099;SDS011;8154;50.830;12.082;2022-08-01T05:00:57;2.90;;;2.28;;
16099;SDS011;8154;50.830;12.082;2022-08-01T05:03:42;2.50;;;2.30;;
16099;SDS011;8154;50.830;12.082;2022-08-01T05:06:29;2.53;;;2.30;;
16099;SDS011;8154;50.830;12.082;2022-08-01T05:09:14;2.40;;;2.20;;
16099;SDS011;8154;50.830;12.082;2022-08-01T05:12:00;2.17;;;2.03;;
16099;SDS011;8154;50.830;12.082;2022-08-01T05:14:49;2.60;;;2.10;;
16099;SDS011;8154;50.830;12.082;2022-08-01T05:17:42;2.95;;;2.20;;
16099;SDS011;8154;50.830;12.082;2022-08-01T05:20:28;2.42;;;2.22;;
16099;SDS011;8154;50.830;12.082;2022-08-01T05:23:22;2.03;;;1.90;;
16099;SDS011;8154;50.830;12.082;2022-08-01T05:26:14;2.30;;;2.10;;
16099;SDS011;8154;50.830;12.082;2022-08-01T05:29:02;1.90;;;1.80;;
16099;SDS011;8154;50.830;12.082;2022-08-01T05:31:58;2.67;;;1.80;;
16099;SDS011;8154;50.830;12.082;2022-08-01T05:34:50;2.13;;;1.90;;
16099;SDS011;8154;50.830;12.082;2022-08-01T05:37:35;1.88;;;1.77;;
16099;SDS011;8154;50.830;12.082;2022-08-01T05:40:20;1.90;;;1.80;;
16099;SDS011;8154;50.830;12.082;2022-08-01T05:43:12;2.13;;;1.80;;
16099;SDS011;8154;50.830;12.082;2022-08-01T05:46:03;1.95;;;1.70;;
16099;SDS011;8154;50.830;12.082;2022-08-01T05:48:53;1.70;;;1.60;;
16099;SDS011;8154;50.830;12.082;2022-08-01T05:51:37;1.77;;;1.67;;
16099;SDS011;8154;50.830;12.082;2022-08-01T05:54:22;1.95;;;1.73;;
16099;SDS011;8154;50.830;12.082;2022-08-01T05:57:07;1.70;;;1.60;;
16099;SDS011;8154;50.830;12.082;2022-08-01T05:59:52;1.70;;;1.60;;
16099;SDS011;8154;50.830;12.082;2022-08-01T06:02:39;1.73;;;1.63;;
16099;SDS011;8154;50.830;12.082;2022-08-01T06:05:26;1.50;;;1.40;;
16099;SDS011;8154;50.830;12.082;2022-08-01T06:08:10;1.92;;;1.60;;
16099;SDS011;8154;50.830;12.082;2022-08-01T06:10:56;1.70;;;1.60;;
16099;SDS011;8154;50.830;12.082;2022-08-01T06:13:40;1.70;;;1.60;;
16099;SDS011;8154;50.830;12.082;2022-08-01T06:16:26;1.70;;;1.60;;
16099;SDS011;8154;50.830;12.082;2022-08-01T06:19:10;1.63;;;1.52;;
16099;SDS011;8154;50.830;12.082;2022-08-01T06:21:55;1.70;;;1.58;;
16099;SDS011;8154;50.830;12.082;2022-08-01T06:24:40;1.70;;;1.60;;
16099;SDS011;8154;50.830;12.082;2022-08-01T06:27:26;1.50;;;1.40;;
16099;SDS011;8154;50.830;12.082;2022-08-01T06:30:12;2.13;;;1.50;;
16099;SDS011;8154;50.830;12.082;2022-08-01T06:33:00;1.50;;;1.40;;
16099;SDS011;8154;50.830;12.082;2022-08-01T06:35:45;1.60;;;1.50;;
16099;SDS011;8154;50.830;12.082;2022-08-01T06:38:30;2.17;;;1.50;;
16099;SDS011;8154;50.830;12.082;2022-08-01T06:41:15;1.60;;;1.50;;
16099;SDS011;8154;50.830;12.082;2022-08-01T06:44:00;1.60;;;1.50;;
16099;SDS011;8154;50.830;12.082;2022-08-01T06:46:45;1.50;;;1.40;;
16099;SDS011;8154;50.830;12.082;2022-08-01T06:49:30;2.30;;;1.50;;
16099;SDS011;8154;50.830;12.082;2022-08-01T06:52:17;1.40;;;1.30;;
16099;SDS011;8154;50.830;12.082;2022-08-01T06:55:02;1.60;;;1.50;;
16099;SDS011;8154;50.830;12.082;2022-08-01T06:57:49;2.22;;;1.50;;
16099;SDS011;8154;50.830;12.082;2022-08-01T07:00:34;1.60;;;1.50;;
16099;SDS011;8154;50.830;12.082;2022-08-01T07:03:19;1.58;;;1.38;;
16099;SDS011;8154;50.830;12.082;2022-08-01T07:06:03;1.42;;;1.33;;
16099;SDS011;8154;50.830;12.082;2022-08-01T07:08:48;1.50;;;1.40;;
16099;SDS011;8154;50.830;12.082;2022-08-01T07:11:34;1.40;;;1.30;;
16099;SDS011;8154;50.830;12.082;2022-08-01T07:14:19;1.55;;;1.40;;
16099;SDS011;8154;50.830;12.082;2022-08-01T07:17:04;1.40;;;1.30;;
16099;SDS011;8154;50.830;12.082;2022-08-01T07:19:49;1.40;;;1.30;;
16099;SDS011;8154;50.830;12.082;2022-08-01T07:22:34;1.20;;;1.20;;
16099;SDS011;8154;50.830;12.082;2022-08-01T07:25:18;1.90;;;1.30;;
16099;SDS011;8154;50.830;12.082;2022-08-01T07:28:03;1.20;;;1.20;;
16099;SDS011;8154;50.830;12.082;2022-08-01T07:30:49;1.58;;;1.30;;
16099;SDS011;8154;50.830;12.082;2022-08-01T07:33:34;1.58;;;1.23;;
16099;SDS011;8154;50.830;12.082;2022-08-01T07:36:19;1.95;;;1.30;;
16099;SDS011;8154;50.830;12.082;2022-08-01T07:39:07;1.50;;;1.40;;
16099;SDS011;8154;50.830;12.082;2022-08-01T07:41:52;1.50;;;1.40;;
16099;SDS011;8154;50.830;12.082;2022-08-01T07:44:37;1.85;;;1.42;;
16099;SDS011;8154;50.830;12.082;2022-08-01T07:47:25;1.60;;;1.50;;
16099;SDS011;8154;50.830;12.082;2022-08-01T07:50:11;1.63;;;1.50;;
16099;SDS011;8154;50.830;12.082;2022-08-01T07:52:58;1.50;;;1.40;;
16099;SDS011;8154;50.830;12.082;2022-08-01T07:55:43;1.50;;;1.40;;
16099;SDS011;8154;50.830;12.082;2022-08-01T07:58:27;1.50;;;1.40;;
16099;SDS011;8154;50.830;12.082;2022-08-01T08:01:13;2.00;;;1.40;;
16099;SDS011;8154;50.830;12.082;2022-08-01T08:03:57;1.42;;;1.17;;
16099;SDS011;8154;50.830;12.082;2022-08-01T08:06:44;1.17;;;1.10;;
16099;SDS011;8154;50.830;12.082;2022-08-01T08:09:31;1.30;;;1.20;;
16099;SDS011;8154;50.830;12.082;2022-08-01T08:12:17;1.30;;;1.20;;
16099;SDS011;8154;50.830;12.082;2022-08-01T08:15:02;2.15;;;1.20;;
16099;SDS011;8154;50.830;12.082;2022-08-01T08:17:49;1.20;;;1.10;;
16099;SDS011;8154;50.830;12.082;2022-08-01T08:20:34;1.13;;;1.13;;
16099;SDS011;8154;50.830;12.082;2022-08-01T08:23:19;1.00;;;1.00;;
16099;SDS011;8154;50.830;12.082;2022-08-01T08:26:31;1.00;;;1.00;;
16099;SDS011;8154;50.830;12.082;2022-08-01T08:29:19;1.00;;;1.00;;
16099;SDS011;8154;50.830;12.082;2022-08-01T08:32:04;1.10;;;1.00;;
16099;SDS011;8154;50.830;12.082;2022-08-01T08:34:52;1.17;;;1.10;;
16099;SDS011;8154;50.830;12.082;2022-08-01T08:37:37;1.20;;;1.10;;
16099;SDS011;8154;50.830;12.082;2022-08-01T08:40:24;1.60;;;1.10;;
16099;SDS011;8154;50.830;12.082;2022-08-01T08:43:16;1.25;;;1.10;;
16099;SDS011;8154;50.830;12.082;2022-08-01T08:46:03;2.20;;;1.40;;
16099;SDS011;8154;50.830;12.082;2022-08-01T08:48:49;1.35;;;1.25;;
16099;SDS011;8154;50.830;12.082;2022-08-01T08:51:37;1.38;;;1.23;;
16099;SDS011;8154;50.830;12.082;2022-08-01T08:54:26;1.20;;;1.10;;
16099;SDS011;8154;50.830;12.082;2022-08-01T08:57:13;1.00;;;1.00;;
16099;SDS011;8154;50.830;12.082;2022-08-01T08:59:59;1.35;;;1.00;;
16099;SDS011;8154;50.830;12.082;2022-08-01T09:02:46;1.10;;;1.00;;
16099;SDS011;8154;50.830;12.082;2022-08-01T09:05:40;1.38;;;1.00;;
16099;SDS011;8154;50.830;12.082;2022-08-01T09:08:29;1.60;;;1.20;;
16099;SDS011;8154;50.830;12.082;2022-08-01T09:11:19;1.67;;;1.00;;
16099;SDS011;8154;50.830;12.082;2022-08-01T09:14:11;1.00;;;0.90;;
16099;SDS011;8154;50.830;12.082;2022-08-01T09:17:43;0.98;;;0.90;;
16099;SDS011;8154;50.830;12.082;2022-08-01T09:20:29;1.10;;;1.00;;
16099;SDS011;8154;50.830;12.082;2022-08-01T09:23:34;0.90;;;0.90;;
16099;SDS011;8154;50.830;12.082;2022-08-01T09:26:30;0.90;;;0.90;;
16099;SDS011;8154;50.830;12.082;2022-08-01T09:29:18;1.10;;;1.00;;
16099;SDS011;8154;50.830;12.082;2022-08-01T09:32:05;1.13;;;0.95;;
16099;SDS011;8154;50.830;12.082;2022-08-01T09:34:53;0.90;;;0.90;;
16099;SDS011;8154;50.830;12.082;2022-08-01T09:37:38;1.02;;;0.85;;
16099;SDS011;8154;50.830;12.082;2022-08-01T09:40:24;1.42;;;0.90;;
16099;SDS011;8154;50.830;12.082;2022-08-01T09:43:12;0.90;;;0.90;;
16099;SDS011;8154;50.830;12.082;2022-08-01T09:45:59;0.90;;;0.90;;
16099;SDS011;8154;50.830;12.082;2022-08-01T09:48:59;1.95;;;1.20;;
16099;SDS011;8154;50.830;12.082;2022-08-01T09:51:50;1.00;;;1.00;;
16099;SDS011;8154;50.830;12.082;2022-08-01T09:54:35;1.10;;;1.00;;
16099;SDS011;8154;50.830;12.082;2022-08-01T09:57:20;1.00;;;1.00;;
16099;SDS011;8154;50.830;12.082;2022-08-01T10:00:06;1.00;;;0.90;;
16099;SDS011;8154;50.830;12.082;2022-08-01T10:06:20;1.00;;;0.90;;
16099;SDS011;8154;50.830;12.082;2022-08-01T10:09:06;0.88;;;0.88;;
16099;SDS011;8154;50.830;12.082;2022-08-01T10:11:50;0.93;;;0.90;;
16099;SDS011;8154;50.830;12.082;2022-08-01T10:14:36;1.00;;;1.00;;
16099;SDS011;8154;50.830;12.082;2022-08-01T10:17:24;0.90;;;0.90;;
16099;SDS011;8154;50.830;12.082;2022-08-01T10:20:09;1.77;;;0.90;;
16099;SDS011;8154;50.830;12.082;2022-08-01T10:22:55;0.93;;;0.80;;
16099;SDS011;8154;50.830;12.082;2022-08-01T10:25:43;0.90;;;0.90;;
16099;SDS011;8154;50.830;12.082;2022-08-01T10:28:30;1.00;;;1.00;;
16099;SDS011;8154;50.830;12.082;2022-08-01T10:31:18;0.90;;;0.90;;
16099;SDS011;8154;50.830;12.082;2022-08-01T10:34:04;1.38;;;0.90;;
16099;SDS011;8154;50.830;12.082;2022-08-01T10:36:49;0.80;;;0.80;;
16099;SDS011;8154;50.830;12.082;2022-08-01T10:39:34;0.90;;;0.90;;
16099;SDS011;8154;50.830;12.082;2022-08-01T10:42:19;1.90;;;0.80;;
16099;SDS011;8154;50.830;12.082;2022-08-01T10:45:03;1.63;;;0.73;;
16099;SDS011;8154;50.830;12.082;2022-08-01T10:50:53;0.80;;;0.80;;
16099;SDS011;8154;50.830;12.082;2022-08-01T10:53:51;0.80;;;0.80;;
16099;SDS011;8154;50.830;12.082;2022-08-01T10:56:51;0.80;;;0.80;;
16099;SDS011;8154;50.830;12.082;2022-08-01T10:59:47;0.80;;;0.80;;
16099;SDS011;8154;50.830;12.082;2022-08-01T11:02:32;0.82;;;0.82;;
16099;SDS011;8154;50.830;12.082;2022-08-01T11:05:24;0.80;;;0.80;;
16099;SDS011;8154;50.830;12.082;2022-08-01T11:08:10;0.82;;;0.82;;
16099;SDS011;8154;50.830;12.082;2022-08-01T11:11:04;0.70;;;0.70;;
16099;SDS011;8154;50.830;12.082;2022-08-01T11:16:46;0.60;;;0.60;;
16099;SDS011;8154;50.830;12.082;2022-08-01T11:20:03;0.60;;;0.60;;
16099;SDS011;8154;50.830;12.082;2022-08-01T11:28:31;0.73;;;0.73;;
16099;SDS011;8154;50.830;12.082;2022-08-01T11:34:00;0.70;;;0.70;;
16099;SDS011;8154;50.830;12.082;2022-08-01T11:36:46;1.30;;;0.82;;
16099;SDS011;8154;50.830;12.082;2022-08-01T11:39:32;0.80;;;0.80;;
16099;SDS011;8154;50.830;12.082;2022-08-01T11:42:17;0.80;;;0.80;;
16099;SDS011;8154;50.830;12.082;2022-08-01T11:45:03;1.70;;;0.90;;
16099;SDS011;8154;50.830;12.082;2022-08-01T11:47:49;0.90;;;0.80;;
16099;SDS011;8154;50.830;12.082;2022-08-01T11:50:35;1.48;;;0.90;;
16099;SDS011;8154;50.830;12.082;2022-08-01T11:53:22;1.60;;;1.00;;
16099;SDS011;8154;50.830;12.082;2022-08-01T11:56:09;0.70;;;0.70;;
16099;SDS011;8154;50.830;12.082;2022-08-01T11:58:59;1.00;;;0.70;;
16099;SDS011;8154;50.830;12.082;2022-08-01T12:01:45;0.80;;;0.80;;
16099;SDS011;8154;50.830;12.082;2022-08-01T12:04:47;0.93;;;0.90;;
16099;SDS011;8154;50.830;12.082;2022-08-01T12:07:34;0.80;;;0.80;;
16099;SDS011;8154;50.830;12.082;2022-08-01T12:10:20;0.82;;;0.80;;
16099;SDS011;8154;50.830;12.082;2022-08-01T12:13:06;1.48;;;0.90;;
16099;SDS011;8154;50.830;12.082;2022-08-01T12:15:51;0.75;;;0.75;;
16099;SDS011;8154;50.830;12.082;2022-08-01T12:18:42;0.90;;;0.70;;
16099;SDS011;8154;50.830;12.082;2022-08-01T12:21:28;0.80;;;0.80;;
16099;SDS011;8154;50.830;12.082;2022-08-01T12:24:21;0.73;;;0.70;;
16099;SDS011;8154;50.830;12.082;2022-08-01T12:27:07;0.60;;;0.60;;
16099;SDS011;8154;50.830;12.082;2022-08-01T12:29:53;0.60;;;0.60;;
16099;SDS011;8154;50.830;12.082;2022-08-01T12:32:40;1.38;;;0.70;;
16099;SDS011;8154;50.830;12.082;2022-08-01T12:35:26;1.30;;;0.73;;
16099;SDS011;8154;50.830;12.082;2022-08-01T12:38:15;0.80;;;0.60;;
16099;SDS011;8154;50.830;12.082;2022-08-01T12:41:05;0.60;;;0.60;;
16099;SDS011;8154;50.830;12.082;2022-08-01T12:43:54;1.27;;;0.70;;
16099;SDS011;8154;50.830;12.082;2022-08-01T12:46:39;0.60;;;0.60;;
16099;SDS011;8154;50.830;12.082;2022-08-01T12:49:28;0.60;;;0.60;;
16099;SDS011;8154;50.830;12.082;2022-08-01T12:52:14;0.63;;;0.60;;
16099;SDS011;8154;50.830;12.082;2022-08-01T12:58:08;0.68;;;0.60;;
16099;SDS011;8154;50.830;12.082;2022-08-01T13:01:05;0.60;;;0.60;;
16099;SDS011;8154;50.830;12.082;2022-08-01T13:04:02;0.60;;;0.60;;
16099;SDS011;8154;50.830;12.082;2022-08-01T13:06:48;0.60;;;0.60;;
16099;SDS011;8154;50.830;12.082;2022-08-01T13:09:37;0.57;;;0.50;;
16099;SDS011;8154;50.830;12.082;2022-08-01T13:12:34;0.90;;;0.60;;
16099;SDS011;8154;50.830;12.082;2022-08-01T13:18:36;0.60;;;0.60;;
16099;SDS011;8154;50.830;12.082;2022-08-01T13:21:22;0.70;;;0.70;;
16099;SDS011;8154;50.830;12.082;2022-08-01T13:24:13;0.50;;;0.50;;
16099;SDS011;8154;50.830;12.082;2022-08-01T13:27:00;0.45;;;0.40;;
16099;SDS011;8154;50.830;12.082;2022-08-01T13:29:47;0.75;;;0.52;;
16099;SDS011;8154;50.830;12.082;2022-08-01T13:32:33;1.40;;;0.50;;
16099;SDS011;8154;50.830;12.082;2022-08-01T13:35:19;0.60;;;0.60;;
16099;SDS011;8154;50.830;12.082;2022-08-01T13:38:04;0.50;;;0.50;;
16099;SDS011;8154;50.830;12.082;2022-08-01T13:40:49;0.70;;;0.70;;
16099;SDS011;8154;50.830;12.082;2022-08-01T13:43:42;0.50;;;0.50;;
16099;SDS011;8154;50.830;12.082;2022-08-01T13:46:27;0.60;;;0.57;;
16099;SDS011;8154;50.830;12.082;2022-08-01T13:49:12;0.70;;;0.70;;
16099;SDS011;8154;50.830;12.082;2022-08-01T13:51:57;0.57;;;0.57;;
16099;SDS011;8154;50.830;12.082;2022-08-01T13:54:43;0.55;;;0.55;;
16099;SDS011;8154;50.830;12.082;2022-08-01T13:57:29;0.50;;;0.50;;
16099;SDS011;8154;50.830;12.082;2022-08-01T14:00:15;0.88;;;0.60;;
16099;SDS011;8154;50.830;12.082;2022-08-01T14:03:01;0.80;;;0.80;;
16099;SDS011;8154;50.830;12.082;2022-08-01T14:05:45;1.55;;;0.93;;
16099;SDS011;8154;50.830;12.082;2022-08-01T14:08:31;1.50;;;1.40;;
16099;SDS011;8154;50.830;12.082;2022-08-01T14:11:16;1.10;;;1.10;;
16099;SDS011;8154;50.830;12.082;2022-08-01T14:14:01;1.75;;;0.88;;
16099;SDS011;8154;50.830;12.082;2022-08-01T14:16:46;1.48;;;0.90;;
16099;SDS011;8154;50.830;12.082;2022-08-01T14:19:30;0.80;;;0.80;;
16099;SDS011;8154;50.830;12.082;2022-08-01T14:22:17;0.85;;;0.85;;
16099;SDS011;8154;50.830;12.082;2022-08-01T14:25:06;0.68;;;0.68;;
16099;SDS011;8154;50.830;12.082;2022-08-01T14:27:53;0.70;;;0.70;;
16099;SDS011;8154;50.830;12.082;2022-08-01T14:30:38;1.00;;;0.90;;
16099;SDS011;8154;50.830;12.082;2022-08-01T14:33:25;0.77;;;0.70;;
16099;SDS011;8154;50.830;12.082;2022-08-01T14:36:10;0.77;;;0.77;;
16099;SDS011;8154;50.830;12.082;2022-08-01T14:38:55;0.70;;;0.70;;
16099;SDS011;8154;50.830;12.082;2022-08-01T14:41:39;0.70;;;0.70;;
16099;SDS011;8154;50.830;12.082;2022-08-01T14:44:24;0.70;;;0.70;;
16099;SDS011;8154;50.830;12.082;2022-08-01T14:47:09;0.60;;;0.60;;
16099;SDS011;8154;50.830;12.082;2022-08-01T14:49:59;0.60;;;0.60;;
16099;SDS011;8154;50.830;12.082;2022-08-01T14:52:45;0.68;;;0.68;;
16099;SDS011;8154;50.830;12.082;2022-08-01T14:55:40;0.60;;;0.60;;
16099;SDS011;8154;50.830;12.082;2022-08-01T14:58:29;1.25;;;0.60;;
16099;SDS011;8154;50.830;12.082;2022-08-01T15:01:17;0.50;;;0.50;;
16099;SDS011;8154;50.830;12.082;2022-08-01T15:04:04;0.60;;;0.60;;
16099;SDS011;8154;50.830;12.082;2022-08-01T15:06:50;0.50;;;0.50;;
16099;SDS011;8154;50.830;12.082;2022-08-01T15:09:34;0.77;;;0.60;;
16099;SDS011;8154;50.830;12.082;2022-08-01T15:12:20;0.60;;;0.60;;
16099;SDS011;8154;50.830;12.082;2022-08-01T15:15:08;0.50;;;0.50;;
16099;SDS011;8154;50.830;12.082;2022-08-01T15:17:54;0.60;;;0.60;;
16099;SDS011;8154;50.830;12.082;2022-08-01T15:20:42;0.60;;;0.60;;
16099;SDS011;8154;50.830;12.082;2022-08-01T15:23:29;0.55;;;0.55;;
16099;SDS011;8154;50.830;12.082;2022-08-01T15:26:17;0.50;;;0.50;;
16099;SDS011;8154;50.830;12.082;2022-08-01T15:29:09;1.00;;;0.50;;
16099;SDS011;8154;50.830;12.082;2022-08-01T15:31:58;0.50;;;0.50;;
16099;SDS011;8154;50.830;12.082;2022-08-01T15:34:52;0.85;;;0.70;;
16099;SDS011;8154;50.830;12.082;2022-08-01T15:37:42;0.60;;;0.60;;
16099;SDS011;8154;50.830;12.082;2022-08-01T15:40:32;0.60;;;0.60;;
16099;SDS011;8154;50.830;12.082;2022-08-01T15:43:22;0.95;;;0.60;;
16099;SDS011;8154;50.830;12.082;2022-08-01T15:46:08;0.60;;;0.60;;
16099;SDS011;8154;50.830;12.082;2022-08-01T15:48:54;0.75;;;0.70;;
16099;SDS011;8154;50.830;12.082;2022-08-01T15:51:39;0.70;;;0.70;;
16099;SDS011;8154;50.830;12.082;2022-08-01T15:54:24;0.70;;;0.70;;
16099;SDS011;8154;50.830;12.082;2022-08-01T15:57:09;1.20;;;0.80;;
16099;SDS011;8154;50.830;12.082;2022-08-01T15:59:54;0.80;;;0.80;;
16099;SDS011;8154;50.830;12.082;2022-08-01T16:02:39;1.00;;;0.90;;
16099;SDS011;8154;50.830;12.082;2022-08-01T16:05:25;0.80;;;0.80;;
16099;SDS011;8154;50.830;12.082;2022-08-01T16:08:11;0.80;;;0.80;;
16099;SDS011;8154;50.830;12.082;2022-08-01T16:10:55;1.13;;;0.80;;
16099;SDS011;8154;50.830;12.082;2022-08-01T16:13:40;0.85;;;0.85;;
16099;SDS011;8154;50.830;12.082;2022-08-01T16:16:26;1.58;;;0.75;;
16099;SDS011;8154;50.830;12.082;2022-08-01T16:19:11;0.80;;;0.80;;
16099;SDS011;8154;50.830;12.082;2022-08-01T16:21:55;0.70;;;0.70;;
16099;SDS011;8154;50.830;12.082;2022-08-01T16:24:40;0.73;;;0.73;;
16099;SDS011;8154;50.830;12.082;2022-08-01T16:27:25;0.70;;;0.70;;
16099;SDS011;8154;50.830;12.082;2022-08-01T16:30:13;0.60;;;0.60;;
16099;SDS011;8154;50.830;12.082;2022-08-01T16:32:58;0.88;;;0.88;;
16099;SDS011;8154;50.830;12.082;2022-08-01T16:35:42;1.50;;;0.75;;
16099;SDS011;8154;50.830;12.082;2022-08-01T16:38:27;0.70;;;0.70;;
16099;SDS011;8154;50.830;12.082;2022-08-01T16:41:12;0.90;;;0.90;;
16099;SDS011;8154;50.830;12.082;2022-08-01T16:43:58;0.95;;;0.85;;
16099;SDS011;8154;50.830;12.082;2022-08-01T16:46:42;0.80;;;0.80;;
16099;SDS011;8154;50.830;12.082;2022-08-01T16:49:27;0.80;;;0.80;;
16099;SDS011;8154;50.830;12.082;2022-08-01T16:52:12;1.40;;;0.90;;
16099;SDS011;8154;50.830;12.082;2022-08-01T16:54:58;0.80;;;0.80;;
16099;SDS011;8154;50.830;12.082;2022-08-01T16:57:43;0.90;;;0.90;;
16099;SDS011;8154;50.830;12.082;2022-08-01T17:00:30;1.27;;;0.90;;
16099;SDS011;8154;50.830;12.082;2022-08-01T17:03:15;0.88;;;0.88;;
16099;SDS011;8154;50.830;12.082;2022-08-01T17:06:00;0.90;;;0.90;;
16099;SDS011;8154;50.830;12.082;2022-08-01T17:08:45;0.90;;;0.90;;
16099;SDS011;8154;50.830;12.082;2022-08-01T17:11:30;1.02;;;0.90;;
16099;SDS011;8154;50.830;12.082;2022-08-01T17:14:14;0.95;;;0.80;;
16099;SDS011;8154;50.830;12.082;2022-08-01T17:16:58;0.90;;;0.90;;
16099;SDS011;8154;50.830;12.082;2022-08-01T17:19:44;0.80;;;0.80;;
16099;SDS011;8154;50.830;12.082;2022-08-01T17:22:28;0.93;;;0.93;;